createdAt,value
2022-10-23T00:02:42.985Z,8.18
2022-10-23T00:05:45.656Z,8.25
2022-10-23T00:08:49.617Z,8.52
2022-10-23T00:11:52.521Z,7.88
2022-10-23T00:14:54.768Z,7.50
2022-10-23T00:17:56.937Z,11.27
2022-10-23T00:20:59.183Z,8.10
2022-10-23T00:24:03.078Z,8.52
2022-10-23T00:27:05.250Z,7.90
2022-10-23T00:30:08.447Z,7.88
2022-10-23T00:33:11.304Z,7.93
2022-10-23T00:36:15.731Z,7.90
2022-10-23T00:39:21.401Z,8.70
2022-10-23T00:42:23.864Z,7.90
2022-10-23T00:45:28.121Z,7.65
2022-10-23T00:48:30.332Z,7.25
2022-10-23T00:51:36.483Z,7.00
2022-10-23T00:54:42.324Z,6.35
2022-10-23T00:57:45.690Z,6.47
2022-10-23T01:00:49.945Z,7.00
2022-10-23T01:03:54.721Z,5.85
2022-10-23T01:07:03.370Z,6.55
2022-10-23T01:10:11.698Z,5.88
2022-10-23T01:13:17.517Z,5.57
2022-10-23T01:16:23.371Z,5.95
2022-10-23T01:19:39.153Z,5.22
2022-10-23T01:23:04.851Z,6.70
2022-10-23T01:26:31.260Z,6.18
2022-10-23T01:29:39.755Z,5.05
2022-10-23T01:32:45.327Z,5.55
2022-10-23T01:35:50.257Z,5.80
2022-10-23T01:38:56.086Z,5.05
2022-10-23T01:42:04.017Z,6.72
2022-10-23T01:45:19.092Z,5.32
2022-10-23T01:48:24.755Z,5.10
2022-10-23T01:51:28.911Z,5.63
2022-10-23T01:54:40.013Z,4.20
2022-10-23T01:57:45.337Z,4.40
2022-10-23T02:00:51.729Z,4.28
2022-10-23T02:03:54.637Z,5.38
2022-10-23T02:06:57.273Z,4.78
2022-10-23T02:09:59.695Z,5.72
2022-10-23T02:13:05.802Z,4.03
2022-10-23T02:16:16.594Z,3.97
2022-10-23T02:19:21.639Z,4.55
2022-10-23T02:22:26.248Z,4.05
2022-10-23T02:25:33.325Z,3.90
2022-10-23T02:28:38.845Z,3.60
2022-10-23T02:31:46.078Z,4.45
2022-10-23T02:34:48.634Z,3.40
2022-10-23T02:37:54.046Z,3.67
2022-10-23T02:41:07.545Z,3.30
2022-10-23T02:44:24.835Z,3.83
2022-10-23T02:47:50.033Z,4.13
2022-10-23T02:50:56.671Z,2.97
2022-10-23T02:54:04.054Z,2.45
2022-10-23T02:57:16.287Z,3.13
2022-10-23T03:00:22.174Z,2.80
2022-10-23T03:03:28.568Z,3.10
2022-10-23T03:06:30.853Z,2.85
2022-10-23T03:09:32.970Z,2.67
2022-10-23T03:12:35.223Z,2.53
2022-10-23T03:15:38.747Z,2.65
2022-10-23T03:18:42.977Z,2.97
2022-10-23T03:21:46.620Z,3.13
2022-10-23T03:24:48.855Z,2.70
2022-10-23T03:27:51.289Z,1.98
2022-10-23T03:30:53.589Z,2.78
2022-10-23T03:33:57.303Z,2.80
2022-10-23T03:36:59.526Z,2.92
2022-10-23T03:40:01.853Z,2.55
2022-10-23T03:43:06.631Z,2.53
2022-10-23T03:46:12.410Z,2.70
2022-10-23T03:49:16.215Z,2.92
2022-10-23T03:52:19.444Z,2.72
2022-10-23T03:55:21.803Z,2.72
2022-10-23T03:58:24.220Z,2.78
2022-10-23T04:01:26.652Z,2.47
2022-10-23T04:04:30.289Z,2.42
2022-10-23T04:07:32.537Z,2.13
2022-10-23T04:10:37.339Z,1.90
2022-10-23T04:13:39.659Z,2.03
2022-10-23T04:16:42.148Z,1.85
2022-10-23T04:19:45.864Z,1.73
2022-10-23T04:22:48.571Z,1.88
2022-10-23T04:25:50.768Z,1.88
2022-10-23T04:28:52.982Z,2.25
2022-10-23T04:31:55.208Z,2.28
2022-10-23T04:34:58.941Z,1.58
2022-10-23T04:38:01.238Z,3.90
2022-10-23T04:41:04.716Z,1.88
2022-10-23T04:44:07.249Z,1.50
2022-10-23T04:47:13.115Z,1.55
2022-10-23T04:50:29.946Z,1.30
2022-10-23T04:53:45.608Z,2.53
2022-10-23T04:56:59.233Z,1.90
2022-10-23T05:00:10.762Z,1.38
2022-10-23T05:03:27.564Z,1.83
2022-10-23T05:06:33.618Z,1.80
2022-10-23T05:09:57.656Z,1.73
2022-10-23T05:13:23.973Z,1.77
2022-10-23T06:00:38.455Z,1.40
2022-10-23T06:14:39.391Z,1.70
2022-10-23T06:19:27.275Z,1.30
2022-10-23T06:27:19.248Z,1.67
2022-10-23T06:30:22.365Z,2.20
2022-10-23T06:33:26.318Z,1.10
2022-10-23T06:36:28.928Z,1.50
2022-10-23T06:39:54.326Z,0.95
2022-10-23T06:43:25.190Z,1.70
2022-10-23T06:53:35.759Z,1.23
2022-10-23T06:56:45.323Z,1.02
2022-10-23T06:59:49.044Z,1.02
2022-10-23T07:02:53.252Z,1.10
2022-10-23T07:05:55.534Z,2.20
2022-10-23T07:08:59.372Z,1.85
2022-10-23T07:12:24.601Z,1.20
2022-10-23T07:15:41.528Z,1.10
2022-10-23T07:18:53.418Z,1.27
2022-10-23T07:22:04.428Z,1.45
2022-10-23T07:25:18.383Z,1.30
2022-10-23T07:28:20.878Z,1.20
2022-10-23T07:31:27.995Z,1.35
2022-10-23T07:34:49.045Z,1.40
2022-10-23T07:38:09.689Z,0.98
2022-10-23T07:41:17.212Z,1.05
2022-10-23T07:44:22.031Z,1.20
2022-10-23T07:47:27.987Z,1.30
2022-10-23T07:50:30.306Z,1.73
2022-10-23T07:53:32.800Z,1.20
2022-10-23T07:56:42.477Z,1.20
2022-10-23T08:00:00.922Z,1.02
2022-10-23T08:03:06.327Z,1.00
2022-10-23T08:06:08.826Z,1.08
2022-10-23T08:09:11.390Z,1.17
2022-10-23T08:12:16.281Z,1.13
2022-10-23T08:15:19.182Z,1.33
2022-10-23T08:18:31.682Z,0.93
2022-10-23T08:21:34.246Z,1.08
2022-10-23T08:24:36.532Z,1.65
2022-10-23T08:27:39.058Z,1.15
2022-10-23T08:30:41.732Z,1.20
2022-10-23T08:33:45.796Z,1.33
2022-10-23T08:36:48.766Z,0.90
2022-10-23T08:39:53.258Z,1.00
2022-10-23T08:43:06.828Z,1.02
2022-10-23T08:46:14.586Z,1.00
2022-10-23T08:49:44.716Z,1.08
2022-10-23T08:52:50.448Z,1.08
2022-10-23T08:55:57.012Z,1.10
2022-10-23T08:59:05.364Z,1.05
2022-10-23T09:02:15.932Z,1.30
2022-10-23T09:05:23.514Z,1.10
2022-10-23T09:08:35.298Z,0.98
2022-10-23T09:11:44.164Z,1.10
2022-10-23T09:15:03.716Z,1.07
2022-10-23T09:18:13.000Z,1.20
2022-10-23T09:21:17.020Z,1.30
2022-10-23T09:24:22.353Z,1.38
2022-10-23T09:27:24.615Z,1.15
2022-10-23T09:30:32.291Z,1.50
2022-10-23T09:33:37.037Z,1.33
2022-10-23T09:36:49.524Z,1.50
2022-10-23T09:40:12.630Z,1.10
2022-10-23T09:43:16.313Z,1.20
2022-10-23T09:46:18.612Z,1.20
2022-10-23T09:49:22.805Z,1.20
2022-10-23T09:52:31.202Z,1.10
2022-10-23T09:55:33.449Z,1.20
2022-10-23T09:58:37.764Z,1.88
2022-10-23T10:01:46.637Z,1.48
2022-10-23T10:05:22.011Z,1.33
2022-10-23T10:08:37.785Z,1.08
2022-10-23T10:11:46.926Z,1.13
2022-10-23T10:14:55.693Z,1.35
2022-10-23T10:18:05.004Z,1.20
2022-10-23T10:21:17.654Z,1.40
2022-10-23T10:24:27.863Z,1.10
2022-10-23T10:27:38.763Z,1.10
2022-10-23T10:30:46.163Z,1.13
2022-10-23T10:33:54.309Z,1.00
2022-10-23T10:36:57.899Z,1.17
2022-10-23T10:40:08.380Z,1.05
2022-10-23T10:43:24.535Z,1.00
2022-10-23T10:46:31.348Z,1.20
2022-10-23T10:49:37.103Z,1.15
2022-10-23T10:53:07.649Z,1.42
2022-10-23T10:56:14.652Z,1.40
2022-10-23T10:59:21.114Z,1.55
2022-10-23T11:02:29.576Z,1.17
2022-10-23T11:05:33.633Z,3.28
2022-10-23T11:08:49.791Z,1.15
2022-10-23T11:12:00.889Z,1.02
2022-10-23T11:15:04.219Z,1.40
2022-10-23T11:18:13.262Z,1.60
2022-10-23T11:21:25.769Z,1.60
2022-10-23T11:24:55.747Z,1.85
2022-10-23T11:28:14.849Z,1.77
2022-10-23T11:31:25.443Z,2.03
2022-10-23T11:34:48.156Z,1.85
2022-10-23T11:38:08.927Z,2.00
2022-10-23T11:41:22.276Z,1.45
2022-10-23T11:44:42.292Z,2.35
2022-10-23T11:47:44.745Z,1.45
2022-10-23T11:50:51.825Z,1.98
2022-10-23T11:54:05.959Z,1.90
2022-10-23T11:57:12.393Z,1.65
2022-10-23T12:00:22.432Z,1.60
2022-10-23T12:03:30.545Z,1.55
2022-10-23T12:06:39.939Z,1.67
2022-10-23T12:09:44.875Z,1.23
2022-10-23T12:12:56.107Z,1.40
2022-10-23T12:16:00.959Z,1.60
2022-10-23T12:19:18.565Z,1.50
2022-10-23T12:22:22.267Z,2.47
2022-10-23T12:25:28.711Z,1.88
2022-10-23T12:28:34.537Z,1.60
2022-10-23T12:31:47.927Z,1.58
2022-10-23T12:34:59.540Z,1.77
2022-10-23T12:41:11.553Z,2.58
2022-10-23T12:44:13.877Z,2.15
2022-10-23T12:47:21.465Z,2.30
2022-10-23T12:50:25.849Z,2.70
2022-10-23T12:53:28.303Z,2.42
2022-10-23T12:56:35.855Z,2.72
2022-10-23T12:59:38.676Z,2.78
2022-10-23T13:02:42.438Z,3.38
2022-10-23T13:05:44.851Z,2.58
2022-10-23T13:08:47.961Z,3.40
2022-10-23T13:12:05.342Z,3.22
2022-10-23T13:15:16.338Z,3.28
2022-10-23T13:18:20.091Z,2.80
2022-10-23T13:21:23.773Z,3.22
2022-10-23T13:24:27.636Z,3.15
2022-10-23T13:27:33.955Z,2.78
2022-10-23T13:30:42.044Z,3.25
2022-10-23T13:33:46.701Z,3.67
2022-10-23T13:36:58.218Z,4.47
2022-10-23T13:40:01.108Z,3.58
2022-10-23T13:43:05.899Z,3.70
2022-10-23T13:46:13.730Z,4.45
2022-10-23T13:49:17.495Z,3.72
2022-10-23T13:52:23.314Z,3.90
2022-10-23T13:55:26.163Z,4.97
2022-10-23T13:58:28.406Z,4.25
2022-10-23T14:01:33.522Z,4.82
2022-10-23T14:04:37.134Z,4.97
2022-10-23T14:07:39.392Z,5.68
2022-10-23T14:10:41.584Z,6.15
2022-10-23T14:13:44.335Z,5.45
2022-10-23T14:16:46.565Z,4.45
2022-10-23T14:19:50.355Z,5.65
2022-10-23T14:22:52.667Z,5.47
2022-10-23T14:25:54.934Z,5.05
2022-10-23T14:28:59.577Z,4.68
2022-10-23T14:32:05.447Z,5.15
2022-10-23T14:35:09.544Z,7.07
2022-10-23T14:38:11.826Z,4.90
2022-10-23T14:41:15.880Z,6.45
2022-10-23T14:44:18.089Z,6.10
2022-10-23T14:47:20.392Z,4.65
2022-10-23T14:50:23.968Z,5.15
2022-10-23T14:53:26.225Z,5.13
2022-10-23T14:56:29.693Z,5.00
2022-10-23T14:59:31.967Z,5.28
2022-10-23T15:02:34.317Z,4.10
2022-10-23T15:05:41.261Z,5.63
2022-10-23T15:08:43.471Z,5.55
2022-10-23T15:11:45.726Z,4.93
2022-10-23T15:14:47.918Z,4.70
2022-10-23T15:17:50.234Z,4.95
2022-10-23T15:20:53.823Z,4.97
2022-10-23T15:23:56.075Z,6.28
2022-10-23T15:26:59.969Z,4.47
2022-10-23T15:30:02.666Z,4.97
2022-10-23T15:33:04.918Z,4.30
2022-10-23T15:36:08.763Z,4.65
2022-10-23T15:39:12.066Z,4.90
2022-10-23T15:42:14.540Z,4.03
2022-10-23T15:45:16.890Z,5.03
2022-10-23T15:48:19.274Z,4.20
2022-10-23T15:51:22.947Z,5.78
2022-10-23T15:54:28.130Z,5.10
2022-10-23T15:57:32.973Z,4.95
2022-10-23T16:00:36.626Z,4.57
2022-10-23T16:03:39.101Z,5.22
2022-10-23T16:06:42.947Z,5.43
2022-10-23T16:09:45.186Z,5.43
2022-10-23T16:12:47.411Z,6.20
2022-10-23T16:15:49.667Z,5.45
2022-10-23T16:18:52.611Z,4.85
2022-10-23T16:21:56.156Z,5.63
2022-10-23T16:24:58.491Z,5.38
2022-10-23T16:28:00.719Z,5.03
2022-10-23T16:31:03.091Z,6.78
2022-10-23T16:34:05.648Z,7.55
2022-10-23T16:37:09.513Z,6.63
2022-10-23T16:40:30.454Z,5.78
2022-10-23T16:43:52.657Z,5.95
2022-10-23T16:47:09.293Z,6.72
2022-10-23T16:50:11.507Z,7.53
2022-10-23T16:53:15.121Z,8.80
2022-10-23T16:59:31.725Z,8.05
2022-10-23T17:02:34.109Z,7.28
2022-10-23T17:05:36.701Z,7.47
2022-10-23T17:08:40.677Z,7.95
2022-10-23T17:11:45.086Z,8.23
2022-10-23T17:14:47.313Z,7.78
2022-10-23T17:17:49.737Z,8.35
2022-10-23T17:20:56.381Z,7.43
2022-10-23T17:24:00.095Z,7.13
2022-10-23T17:27:02.445Z,7.30
2022-10-23T17:30:09.228Z,7.90
2022-10-23T17:33:12.892Z,7.60
2022-10-23T17:36:16.197Z,6.82
2022-10-23T17:39:22.066Z,8.32
2022-10-23T17:42:24.348Z,7.55
2022-10-23T17:45:26.865Z,6.63
2022-10-23T17:48:29.284Z,7.38
2022-10-23T17:51:33.645Z,8.27
2022-10-23T17:54:37.233Z,5.68
2022-10-23T17:57:39.681Z,6.03
2022-10-23T18:00:41.955Z,5.90
2022-10-23T18:03:44.669Z,7.03
2022-10-23T18:06:48.973Z,7.05
2022-10-23T18:09:52.870Z,5.85
2022-10-23T18:12:55.283Z,6.35
2022-10-23T18:16:00.743Z,6.35
2022-10-23T18:19:04.206Z,6.38
2022-10-23T18:22:06.695Z,6.00
2022-10-23T18:25:10.652Z,7.28
2022-10-23T18:28:13.106Z,5.93
2022-10-23T18:31:16.000Z,5.78
2022-10-23T18:34:20.542Z,6.47
2022-10-23T18:37:23.387Z,6.65
2022-10-23T18:40:28.082Z,5.13
2022-10-23T18:43:43.254Z,4.72
2022-10-23T18:46:47.868Z,4.47
2022-10-23T18:49:50.153Z,5.13
2022-10-23T18:52:52.836Z,3.40
2022-10-23T18:55:56.762Z,3.33
2022-10-23T18:59:01.766Z,2.88
2022-10-23T19:02:04.234Z,3.40
2022-10-23T19:05:07.962Z,3.55
2022-10-23T19:08:10.952Z,4.05
2022-10-23T19:11:15.947Z,3.65
2022-10-23T19:14:18.288Z,2.90
2022-10-23T19:17:22.719Z,2.38
2022-10-23T19:20:25.935Z,1.98
2022-10-23T19:23:30.141Z,1.92
2022-10-23T19:26:34.952Z,2.20
2022-10-23T19:29:39.265Z,2.00
2022-10-23T19:32:43.068Z,3.10
2022-10-23T19:35:45.560Z,2.35
2022-10-23T19:38:47.865Z,2.13
2022-10-23T19:41:51.647Z,1.80
2022-10-23T19:44:54.321Z,1.88
2022-10-23T19:47:56.628Z,2.65
2022-10-23T19:50:59.039Z,1.98
2022-10-23T19:54:01.399Z,1.67
2022-10-23T19:57:05.017Z,2.30
2022-10-23T20:00:08.419Z,1.90
2022-10-23T20:03:13.627Z,1.88
2022-10-23T20:06:18.384Z,2.08
2022-10-23T20:09:20.882Z,2.00
2022-10-23T20:12:24.737Z,2.25
2022-10-23T20:15:27.248Z,1.63
2022-10-23T20:18:29.604Z,1.58
2022-10-23T20:21:32.319Z,2.40
2022-10-23T20:24:34.647Z,2.83
2022-10-23T20:27:38.230Z,2.33
2022-10-23T20:30:41.043Z,2.00
2022-10-23T20:33:43.921Z,2.97
2022-10-23T20:36:48.434Z,2.30
2022-10-23T20:39:50.836Z,2.97
2022-10-23T20:42:54.484Z,2.47
2022-10-23T20:45:56.905Z,2.10
2022-10-23T20:48:59.479Z,2.97
2022-10-23T20:52:02.702Z,2.28
2022-10-23T20:55:05.495Z,3.10
2022-10-23T20:58:09.255Z,3.22
2022-10-23T21:01:16.260Z,2.75
2022-10-23T21:04:20.486Z,2.58
2022-10-23T21:07:22.714Z,2.95
2022-10-23T21:10:24.949Z,2.35
2022-10-23T21:13:29.138Z,2.22
2022-10-23T21:16:33.249Z,2.35
2022-10-23T21:19:35.800Z,2.20
2022-10-23T21:22:38.054Z,2.90
2022-10-23T21:25:40.607Z,3.15
2022-10-23T21:28:55.719Z,2.85
2022-10-23T21:32:03.319Z,2.45
2022-10-23T21:35:06.519Z,2.60
2022-10-23T21:38:08.762Z,2.47
2022-10-23T21:41:12.884Z,2.63
2022-10-23T21:44:16.493Z,2.03
2022-10-23T21:47:18.736Z,1.73
2022-10-23T21:50:21.017Z,1.75
2022-10-23T21:53:23.188Z,1.73
2022-10-23T21:56:28.508Z,2.15
2022-10-23T21:59:34.828Z,2.33
2022-10-23T22:02:38.079Z,2.33
2022-10-23T22:05:40.392Z,3.08
2022-10-23T22:08:42.650Z,2.55
2022-10-23T22:11:44.986Z,2.33
2022-10-23T22:14:48.579Z,2.20
2022-10-23T22:17:50.871Z,2.03
2022-10-23T22:21:01.231Z,2.03
2022-10-23T22:27:10.985Z,2.53
2022-10-23T22:30:14.705Z,2.05
2022-10-23T22:33:16.945Z,2.22
2022-10-23T22:36:19.298Z,1.98
2022-10-23T22:39:22.115Z,2.33
2022-10-23T22:42:24.331Z,2.20
2022-10-23T22:45:27.964Z,2.10
2022-10-23T22:48:30.202Z,2.58
2022-10-23T22:51:32.749Z,2.30
2022-10-23T22:54:37.039Z,2.25
2022-10-23T22:57:39.321Z,2.13
2022-10-23T23:00:43.698Z,2.63
2022-10-23T23:03:46.612Z,2.85
2022-10-23T23:06:48.879Z,2.35
2022-10-23T23:09:51.055Z,2.75
2022-10-23T23:12:53.469Z,1.88
2022-10-23T23:15:57.444Z,1.67
2022-10-23T23:19:00.517Z,2.10
2022-10-23T23:22:03.299Z,2.20
2022-10-23T23:25:06.327Z,1.73
2022-10-23T23:28:08.508Z,1.98
2022-10-23T23:31:15.430Z,1.77
2022-10-23T23:34:17.628Z,2.00
2022-10-23T23:37:19.790Z,2.63
2022-10-23T23:40:22.056Z,2.08
2022-10-23T23:43:24.270Z,1.55
2022-10-23T23:46:27.870Z,2.90
2022-10-23T23:49:30.101Z,2.40
2022-10-23T23:52:32.416Z,2.30
2022-10-23T23:55:34.797Z,2.55
2022-10-23T23:58:37.100Z,2.53
